Main page
METAR-TAF:

METAR-TAF

Airports :

Adolfo Suárez Madrid–Barajas Airport

Madrid, Spain

latitude: 40-27N, longitude: 003-33W, elevation: 609 m

Current weather observation

The report was made 33 minutes ago, at 11:00 UTC
Wind 5 kt from the East/Southeast
Temperature 29°C
Humidity 45%
Pressure 1018 hPa
Visibility 10 km or more
no clouds below 1500 m and no cumulonimbus

METAR: LEMD 151100Z 12005KT CAVOK 29/16 Q1018 NOSIG

Time: 13:33 (11:33 UTC)

Forecast

The report was made 6 hours and 33 minutes ago, at 05:00 UTC
Forecast valid from 15 at 06 UTC to 16 at 12 UTC
Wind 6 kt from the North/Northeast
Visibility 10 km or more
no clouds below 1500 m and no cumulonimbus
Probability 40% :
Temporary
from 15 at 11 UTC to 15 at 19 UTC
Wind 8 kt from the Southwest
Probability 40% :
Temporary
from 15 at 21 UTC to 16 at 02 UTC
Wind 10 kt from the South/Southeast

TAF: LEMD 150500Z 1506/1612 02006KT CAVOK TX35/1516Z TN18/1506Z PROB40 TEMPO 1511/1519 23008KT PROB40 TEMPO 1521/1602 16010KT

Weather observations and forecasts of more than 4000 airports (METAR and TAF reports).

The available stations are represented by yellow and red dots on the map.

Hover mouse over dot to see the name of the station.

Then click to see weather observations and forecasts.

To change the map : click on the green buttons with a black cross to zoom in, on the green button with a dash to zoom out, or on the green arrows for adjacent maps.


METAR-TAF: